Parker City, Indiana
Current Conditions -  °F | °C
As of 12:53 AM on Sunday 26 Oct 2014 (Local Time) from KMIE Reporting Station
Clear Clear  
Wind Chill: 12°   Ceiling: Unl
Heat Index: 12°   Visibility: 10mi
Dew Point:   Wind: 7mph
Humidity: 55%   Direction: 290°WNW
Pressure: 29.94"   Gusts: NA
Location:  40.19°N, 85.2°W
Report Text: KMIE 260453Z 29006KT 10SM CLR 12/03 A2994 RMK AO2 SLP134 T01170028 402440111
Loading
Personal Weather Stations






























Interactive Weather Map
Tropical Storm Tracking
New forecast layout! Learn more

10-Day Weather Forecast

Advertisements
Track Severe Weather on mobile